FAWB/PRY METAR and TAF weather

Enter ICAO airport designator
Station Type Date Time Source
FAWB METAR 2018/09/21 23:00 UTC NOAA

FAWB 212300Z AUTO 11002KT //// // ////// ///// Q1022


Station Type Date Time Source
FAWB Decoded METAR 2018/09/21 23:00 UTC NOAA

Wonderboom / Pretoria, South Africa (FAWB) 25-39S 028-13E
Sep 21, 2018 - 07:00 PM EDT / 2018.09.21 2300 UTC
Wind: from the ESE (110 degrees) at 2 MPH (2 KT):0
Pressure (altimeter): 30.18 in. Hg (1022 hPa)
ob: FAWB 212300Z AUTO 11002KT //// // ////// ///// Q1022
cycle: 23

Station Type Date Time Source
FAWB TAF 2018/08/28 04:00 UTC NOAA

TAF FAWB 280300Z 2804/2815 VRB03KT CAVOK
BECMG 2809/2811 36005KT TX24/2812Z TN07/2804Z


Example: see airport list